Latest Coastal Weather Observations for Laverton

IDV60701

Issued at 5:11 am EDT Friday 20 October 2017 (issued every 10 minutes, with the page automatically refreshed every 10 minutes)

About coastal observations | Map of coastal stations | Coastal observations for VIC | Marine services | Other Formats
Station Details ID: 087031 Name: LAVERTON RAAF Lat: -37.86 Lon: 144.76 Height: 20.1 m
Data from the previous 72 hours. | See also: Recent months at Laverton
Date/Time
EDT
Temp
°C
Wind Pressure Rain since
9am
mm
Weather Cloud Vis
km
Sea
Height
m
Swell
Dir  Spd
kts
Gust
kts
hPa Trend Height
m
Period
s
Dir
20/05:00am 10.5 W 7 10 1024.3 - 4.6 - Partly cloudy 10 - - - -
20/04:30am 10.6 W 6 8 1024.2 - 4.6 - Cloudy 10 - - - -
20/04:00am 10.5 W 7 9 1024.1 - 4.6 - Partly cloudy 10 - - - -
20/03:30am 10.2 WSW 7 11 1024.1 - 4.6 - Partly cloudy 10 - - - -
20/03:00am 7.3 WNW 6 8 1023.8 - 4.6 - - 10 - - - -
20/02:30am 8.3 WNW 5 6 1023.8 - 4.6 - - 10 - - - -
20/02:00am 8.3 WNW 6 7 1024.1 - 4.6 - - 10 - - - -
20/01:30am 9.1 NW 6 7 1024.1 - 4.6 - - 10 - - - -
20/01:00am 9.3 NW 6 7 1024.1 - 4.6 - Partly cloudy 10 - - - -
20/12:30am 9.8 NW 5 5 1024.2 - 4.6 - Partly cloudy 10 - - - -
20/12:00am 11.0 WNW 5 6 1024.4 - 4.6 - Mostly clear 10 - - - -
 
Date/Time
EDT
Temp
°C
Wind Pressure Rain since
9am
mm
Weather Cloud Vis
km
Sea
Height
m
Swell
Dir  Spd
kts
Gust
kts
hPa Trend Height
m
Period
s
Dir
19/11:30pm 11.8 WNW 5 7 1024.3 - 4.6 - - 10 - - - -
19/11:00pm 13.2 W 6 9 1024.2 - 4.6 - - 10 - - - -
19/10:30pm 13.7 WSW 7 11 1024.1 - 4.6 - - 10 - - - -
19/10:00pm 14.0 WSW 7 9 1024.0 - 4.6 - - 10 - - - -
19/09:30pm 14.4 WSW 7 9 1023.6 - 4.6 - - 10 - - - -
19/09:00pm 14.8 SW 11 17 1023.1 - 4.6 - Cloudy 10 - - - -
19/08:30pm 15.6 SW 11 17 1022.5 - 4.6 - Partly cloudy 10 - - - -
19/08:00pm 16.1 WSW 11 17 1021.7 - 4.6 - - 10 - - - -
19/07:30pm 16.3 WSW 13 18 1020.2 - 4.6 - Partly cloudy 10 - - - -
19/07:00pm 16.9 SW 12 19 1020.2 - 4.6 - Partly cloudy 10 - - - -
19/06:30pm 17.5 SW 18 24 1018.9 - 4.6 - Partly cloudy 10 - - - -
19/06:00pm 18.4 WSW 15 23 1018.2 - 4.6 - Cloudy 10 - - - -
19/05:38pm 18.4 SW 18 29 1017.7 - 4.6 - Cloudy 10 - - - -
19/05:30pm 18.6 WSW 17 23 1017.3 - 4.6 - Cloudy 10 - - - -
19/05:09pm 19.3 SW 19 29 1016.9 - 4.6 - Partly cloudy 10 - - - -
19/05:00pm 19.4 SW 22 31 1016.7 - 4.6 - Partly cloudy 10 - - - -
19/04:30pm 21.3 SW 19 31 1016.1 - 4.6 - Partly cloudy 10 - - - -
19/04:09pm 23.5 WSW 17 31 1015.9 - 4.6 - Partly cloudy 10 - - - -
19/04:00pm 24.5 WSW 13 19 1015.8 - 4.6 - Partly cloudy 10 - - - -
19/03:30pm 23.3 SW 13 18 1015.7 - 4.6 - Partly cloudy 10 - - - -
19/03:00pm 24.2 SSW 9 13 1015.8 - 4.6 - Cloudy 10 - - - -
19/02:30pm 24.2 WNW 6 13 1015.8 - 4.6 - Partly cloudy 10 - - - -
19/02:00pm 24.0 NNW 4 6 1015.5 - 4.6 - Partly cloudy 10 - - - -
19/01:30pm 23.7 NE 6 8 1015.7 - 4.6 - Partly cloudy 10 - - - -
19/01:00pm 21.5 ESE 3 5 1016.0 - 4.6 - Partly cloudy 10 - - - -
19/12:30pm 19.4 E 5 8 1015.9 - 4.6 - Partly cloudy 10 - - - -
19/12:00pm 18.3 E 5 7 1016.3 - 4.6 Recent precip. Cloudy 10 - - - -
19/11:49am 18.2 E 6 10 1016.3 - 4.6 - Partly cloudy 10 - - - -
19/11:30am 17.4 ESE 6 9 1016.1 - 4.4 - Partly cloudy 7 - - - -
19/11:03am 17.3 E 7 9 1016.4 - 2.8 - Partly cloudy 4 - - - -
19/11:00am 17.4 E 7 9 1016.5 - 2.6 - Partly cloudy 4 - - - -
19/10:56am 17.5 E 7 10 1016.4 - 1.8 - Partly cloudy 7 - - - -
19/10:48am 17.7 ESE 8 12 1016.6 - 1.2 - Partly cloudy 10 - - - -
19/10:30am 19.1 SW 9 12 1016.5 - 1.0 - Partly cloudy 10 - - - -
19/10:00am 19.5 SW 8 11 1016.4 - 0.6 - Cloudy 10 - - - -
19/09:36am 18.6 SSW 10 14 1016.6 - 0.6 - Partly cloudy 10 - - - -
19/09:30am 18.5 SSW 11 15 1016.4 - 0.6 - Partly cloudy 10 - - - -
19/09:17am 19.1 SW 11 16 1016.1 - 0.2 - Partly cloudy 7 - - - -
19/09:00am 23.5 N 7 11 1015.6 - 0.0 - Cloudy 10 - - - -
19/08:30am 24.5 N 11 17 1015.5 - 0.0 - Partly cloudy 10 - - - -
19/08:00am 23.0 NNW 9 12 1015.3 - 0.0 - Partly cloudy 10 - - - -
19/07:30am 23.0 NNW 9 13 1015.2 - 0.0 - Partly cloudy 10 - - - -
19/07:00am 23.4 N 11 17 1014.5 - 0.0 - Partly cloudy 10 - - - -
19/06:30am 23.6 N 11 17 1013.9 - 0.0 - Partly cloudy 10 - - - -
19/06:00am 24.4 NNW 13 22 1013.9 - 0.0 - Cloudy 10 - - - -
19/05:30am 24.7 N 14 21 1012.9 - 0.0 - Partly cloudy 10 - - - -
19/05:00am 24.7 N 11 19 1013.3 - 0.0 - - 10 - - - -
19/04:30am 24.8 N 14 23 1013.4 - 0.0 - - 10 - - - -
19/04:00am 24.0 N 9 14 1013.4 - 0.0 - - 10 - - - -
19/03:30am 23.8 N 11 17 1013.8 - 0.0 - - 10 - - - -
19/03:01am 24.8 N 15 25 1013.9 - 0.0 - - 10 - - - -
19/03:00am 24.8 N 14 25 1013.9 - 0.0 - Cloudy 10 - - - -
19/02:30am 23.9 NNE 14 20 1013.9 - 0.0 - - 10 - - - -
19/02:00am 23.2 NNE 12 18 1014.5 - 0.0 - - 10 - - - -
19/01:30am 22.3 NNE 9 13 1015.3 - 0.0 - - 10 - - - -
19/01:00am 22.3 NNE 10 15 1015.8 - 0.0 - - 10 - - - -
19/12:30am 22.4 NNE 9 12 1016.0 - 0.0 - - 10 - - - -
19/12:00am 22.8 NNE 9 12 1016.3 - 0.0 - - 10 - - - -
 
Date/Time
EDT
Temp
°C
Wind Pressure Rain since
9am
mm
Weather Cloud Vis
km
Sea
Height
m
Swell
Dir  Spd
kts
Gust
kts
hPa Trend Height
m
Period
s
Dir
18/11:30pm 23.4 NNE 10 15 1016.8 - 0.0 - - 10 - - - -
18/11:00pm 23.9 NNE 10 15 1017.1 - 0.0 - - 10 - - - -
18/10:30pm 23.8 NNE 8 10 1017.6 - 0.0 - - 10 - - - -
18/10:00pm 24.4 NNE 8 11 1017.7 - 0.0 - - 10 - - - -
18/09:30pm 25.4 NNE 9 13 1017.8 - 0.0 - - 10 - - - -
18/09:00pm 26.0 NNE 10 13 1017.6 - 0.0 - - 10 - - - -
18/08:30pm 26.5 NNE 10 13 1017.3 - 0.0 - - 10 - - - -
18/08:00pm 27.2 NNE 9 14 1017.1 - 0.0 - - 10 - - - -
18/07:30pm 28.0 NNE 13 20 1016.8 - 0.0 - - 10 - - - -
18/07:00pm 28.7 NNE 14 21 1016.6 - 0.0 - - 10 - - - -
18/06:30pm 29.3 NNE 13 20 1016.5 - 0.0 - - 10 - - - -
18/06:00pm 29.6 NNE 15 23 1016.4 - 0.0 - - 10 - - - -
18/05:30pm 30.1 N 14 23 1016.5 - 0.0 - - 10 - - - -
18/05:00pm 30.4 NNE 14 20 1016.5 - 0.0 - - 10 - - - -
18/04:30pm 30.7 N 14 22 1016.7 - 0.0 - - 10 - - - -
18/04:00pm 30.7 N 15 24 1017.0 - 0.0 - - 10 - - - -
18/03:30pm 30.8 N 13 19 1017.4 - 0.0 - - 10 - - - -
18/03:00pm 30.9 N 13 21 1017.8 - 0.0 - - 10 - - - -
18/02:30pm 30.5 N 13 18 1018.4 - 0.0 - - 10 - - - -
18/02:00pm 29.9 N 15 23 1019.0 - 0.0 - - 10 - - - -
18/01:30pm 30.1 N 13 21 1019.3 - 0.0 - - 10 - - - -
18/01:00pm 29.6 N 14 21 1019.7 - 0.0 - - 10 - - - -
18/12:30pm 29.0 N 14 21 1020.1 - 0.0 - - 10 - - - -
18/12:00pm 28.1 N 14 22 1020.5 - 0.0 - - 10 - - - -
18/11:30am 27.3 N 14 20 1020.7 - 0.0 - - 10 - - - -
18/11:00am 27.4 N 12 19 1020.9 - 0.0 - - 10 - - - -
18/10:30am 25.8 N 14 22 1021.2 - 0.0 - - 10 - - - -
18/10:00am 24.7 NNE 16 25 1021.3 - 0.0 - - 10 - - - -
18/09:59am 24.8 NNE 15 25 1021.4 - 0.0 - - 10 - - - -
18/09:30am 24.0 N 16 25 1021.6 - 0.0 - - 10 - - - -
18/09:10am 24.0 N 15 25 1021.7 - 0.0 - - 10 - - - -
18/09:00am 23.6 N 16 24 1021.7 - 0.0 - - 10 - - - -
18/08:30am 22.8 N 15 25 1021.5 - 0.0 - - 10 - - - -
18/08:01am 21.9 N 15 29 1021.3 - 0.0 - - 10 - - - -
18/08:00am 21.9 N 15 24 1021.4 - 0.0 - - 10 - - - -
18/07:30am 20.5 NNE 11 15 1021.2 - 0.0 - - 10 - - - -
18/07:00am 18.5 NNE 9 14 1020.9 - 0.0 - - 10 - - - -
18/06:30am 17.3 NNE 7 10 1020.6 - 0.0 - - 10 - - - -
18/06:00am 15.7 N 6 7 1020.5 - 0.0 - - 10 - - - -
18/05:30am 15.0 NNE 5 7 1020.1 - 0.0 - - 10 - - - -
18/05:00am 15.1 N 5 7 1019.9 - 0.0 - - 10 - - - -
18/04:30am 15.3 NNE 7 8 1019.8 - 0.0 - - 10 - - - -
18/04:00am 15.9 NNE 8 11 1020.0 - 0.0 - - 10 - - - -
18/03:30am 15.7 NNE 7 9 1020.1 - 0.0 - - 10 - - - -
18/03:00am 15.2 NNE 7 9 1020.3 - 0.0 - - 10 - - - -
18/02:30am 15.6 NNE 6 8 1020.5 - 0.0 - - 10 - - - -
18/02:00am 16.7 NNE 7 9 1020.8 - 0.0 - - 10 - - - -
18/01:30am 17.9 N 8 10 1021.0 - 0.0 - - 10 - - - -
18/01:00am 16.8 N 6 9 1021.3 - 0.0 - - 10 - - - -
18/12:30am 15.4 N 4 6 1021.4 - 0.0 - - 10 - - - -
18/12:00am 16.9 N 5 6 1021.5 - 0.0 - - 10 - - - -
 
Date/Time
EDT
Temp
°C
Wind Pressure Rain since
9am
mm
Weather Cloud Vis
km
Sea
Height
m
Swell
Dir  Spd
kts
Gust
kts
hPa Trend Height
m
Period
s
Dir
17/11:30pm 17.6 NNW 5 6 1021.5 - 0.0 - - 10 - - - -
17/11:00pm 21.3 N 7 10 1021.4 - 0.0 - - 10 - - - -
17/10:30pm 20.9 N 8 11 1021.5 - 0.0 - - 10 - - - -
17/10:00pm 21.2 N 6 9 1021.7 - 0.0 - - 10 - - - -
17/09:30pm 23.7 N 6 9 1021.4 - 0.0 - - 10 - - - -
17/09:00pm 24.0 NNE 5 7 1021.2 - 0.0 - - 10 - - - -
17/08:30pm 24.7 NNE 6 7 1020.9 - 0.0 - - 10 - - - -
17/08:00pm 25.7 NNE 6 7 1020.5 - 0.0 - - 10 - - - -
17/07:30pm 26.9 NNE 8 11 1020.3 - 0.0 - - 10 - - - -
17/07:00pm 28.1 NNE 9 13 1020.1 - 0.0 - - 10 - - - -
17/06:30pm 28.8 NNE 9 14 1020.0 - 0.0 - - 10 - - - -
17/06:00pm 29.3 N 11 15 1019.9 - 0.0 - - 10 - - - -
17/05:30pm 29.6 NNE 9 14 1019.9 - 0.0 - - 10 - - - -
17/05:00pm 30.0 NNE 10 15 1019.9 - 0.0 - - 10 - - - -
17/04:30pm 30.3 NNE 9 15 1019.9 - 0.0 - - 10 - - - -
17/04:00pm 30.7 N 8 14 1020.0 - 0.0 - - 10 - - - -
17/03:30pm 30.4 NNE 10 15 1020.2 - 0.0 - - 10 - - - -
17/03:00pm 30.0 N 11 19 1020.4 - 0.0 - - 10 - - - -
17/02:30pm 30.2 NNE 11 19 1020.8 - 0.0 - - 10 - - - -
17/02:00pm 29.9 NNE 12 16 1021.1 - 0.0 - - 10 - - - -
17/01:30pm 28.8 N 13 19 1021.3 - 0.0 - - 10 - - - -
17/01:00pm 28.4 NNE 13 20 1021.7 - 0.0 - - 10 - - - -
17/12:30pm 27.9 NNE 13 18 1022.0 - 0.0 - - 10 - - - -
17/12:00pm 27.3 NNE 14 19 1022.2 - 0.0 - - 10 - - - -
17/11:30am 26.8 NNE 14 19 1022.6 - 0.0 - - 10 - - - -
17/11:00am 25.6 NNE 13 20 1022.9 - 0.0 - - 10 - - - -
17/10:30am 24.5 NNE 14 19 1022.9 - 0.0 - - 10 - - - -
17/10:00am 24.4 N 13 19 1023.0 - 0.0 - - 10 - - - -
17/09:30am 23.1 N 13 21 1023.0 - 0.0 - - 10 - - - -
17/09:00am 21.3 N 12 18 1023.0 - 0.0 - - 10 - - - -
17/08:30am 19.5 N 9 13 1023.0 - 0.0 - - 10 - - - -
17/08:00am 16.6 N 6 10 1022.8 - 0.0 - - 10 - - - -
17/07:30am 14.4 N 5 7 1022.5 - 0.0 - - 10 - - - -
17/07:00am 11.3 N 4 6 1022.3 - 0.0 - - 10 - - - -
17/06:30am 12.0 NNE 5 6 1022.0 - 0.0 - - 10 - - - -
17/06:00am 12.1 NNE 5 7 1021.7 - 0.0 - - 10 - - - -
17/05:30am 12.6 NNE 7 8 1021.7 - 0.0 - - 10 - - - -

Other Formats:

Comma delimited format used in spreadsheet applications
http://www.bom.gov.au/fwo/IDV60701/IDV60701.94865.axf

JavaScript Object Notation format (JSON) in row-major order
http://www.bom.gov.au/fwo/IDV60701/IDV60701.94865.json